Time;durP1;ratioP1;P1;durP2;ratioP2;P2;SDS_P1;SDS_P2;PMS_P1;PMS_P2;Temp;Humidity;BMP_temperature;BMP_pressure;BME280_temperature;BME280_humidity;BME280_pressure;Samples;Min_cycle;Max_cycle;Signal;HPM_P1;HPM_P2
2022/06/13 00:02:01;;;;;;;3.88;3.42;;;23.20;66.60;;;;;;5029501;28;20037;-58
2022/06/13 00:04:27;;;;;;;3.47;3.17;;;23.20;66.80;;;;;;5029722;28;20014;-58
2022/06/13 00:06:53;;;;;;;3.50;3.20;;;23.20;67.10;;;;;;5023491;28;20026;-58
2022/06/13 00:09:18;;;;;;;3.25;2.95;;;23.10;67.00;;;;;;5026807;28;20028;-58
2022/06/13 00:11:44;;;;;;;4.15;3.40;;;23.10;67.20;;;;;;5030601;28;20022;-58
2022/06/13 00:14:10;;;;;;;3.67;3.38;;;23.10;67.30;;;;;;5031422;28;20025;-58
2022/06/13 00:16:36;;;;;;;3.35;3.05;;;23.10;67.30;;;;;;5017780;28;20497;-58
2022/06/13 00:19:01;;;;;;;3.50;3.20;;;23.00;67.30;;;;;;5023205;28;20014;-58
2022/06/13 00:21:33;;;;;;;3.47;3.15;;;23.00;67.30;;;;;;5030010;28;20025;-58
2022/06/13 00:24:01;;;;;;;3.25;2.95;;;23.00;67.30;;;;;;5028926;28;20030;-58
2022/06/13 00:26:30;;;;;;;3.50;3.20;;;23.00;67.10;;;;;;5021211;28;20199;-58
2022/06/13 00:28:56;;;;;;;3.47;3.17;;;22.90;67.10;;;;;;5031732;28;20056;-58
2022/06/13 00:31:22;;;;;;;3.40;3.10;;;22.90;67.30;;;;;;5031621;28;20477;-58
2022/06/13 00:33:49;;;;;;;4.28;3.38;;;22.90;67.50;;;;;;5031017;28;20060;-57
2022/06/13 00:36:15;;;;;;;3.78;3.40;;;22.90;67.70;;;;;;5020734;28;20079;-58
2022/06/13 00:38:41;;;;;;;3.55;3.22;;;22.90;67.90;;;;;;5032098;28;20758;-57
2022/06/13 00:41:12;;;;;;;3.47;3.15;;;22.90;67.90;;;;;;5030481;28;20049;-58
2022/06/13 00:43:40;;;;;;;3.67;3.35;;;22.80;68.00;;;;;;5032005;28;20036;-58
2022/06/13 00:46:26;;;;;;;4.15;3.15;;;22.80;67.90;;;;;;5021791;28;20065;-58
2022/06/13 00:48:57;;;;;;;3.80;3.40;;;22.80;67.90;;;;;;5021436;28;20397;-58
2022/06/13 00:51:23;;;;;;;4.45;3.30;;;22.70;67.90;;;;;;5025420;28;20079;-58
2022/06/13 00:53:50;;;;;;;3.67;3.38;;;22.80;68.00;;;;;;5032790;28;20508;-58
2022/06/13 00:56:19;;;;;;;3.47;3.17;;;22.70;68.20;;;;;;5027223;28;20033;-58
2022/06/13 00:58:58;;;;;;;3.70;3.30;;;22.70;68.40;;;;;;5029002;28;20085;-57
2022/06/13 01:01:25;;;;;;;3.83;3.42;;;22.70;68.50;;;;;;5028921;28;20021;-58
2022/06/13 01:03:51;;;;;;;3.58;3.20;;;22.70;68.30;;;;;;5021608;28;20030;-58
2022/06/13 01:06:18;;;;;;;3.30;3.00;;;22.60;68.40;;;;;;5027183;28;20034;-58
2022/06/13 01:08:44;;;;;;;3.83;3.30;;;22.60;68.50;;;;;;5027633;28;20030;-58
2022/06/13 01:11:18;;;;;;;3.40;3.10;;;22.60;68.40;;;;;;5023103;28;20519;-58
2022/06/13 01:14:03;;;;;;;3.20;2.90;;;22.60;68.40;;;;;;5030485;28;20113;-58
2022/06/13 01:16:47;;;;;;;3.40;3.10;;;22.50;68.30;;;;;;5031386;28;20033;-58
2022/06/13 01:19:24;;;;;;;3.58;3.28;;;22.50;68.10;;;;;;5027493;28;20017;-58
2022/06/13 01:22:12;;;;;;;3.83;3.17;;;22.50;68.10;;;;;;5033303;28;20087;-58
2022/06/13 01:24:50;;;;;;;3.75;3.38;;;22.50;68.10;;;;;;5027762;28;20029;-58
2022/06/13 01:27:28;;;;;;;3.30;3.00;;;22.50;68.20;;;;;;5031316;28;20071;-58
2022/06/13 01:30:17;;;;;;;3.50;3.20;;;22.50;68.50;;;;;;5033980;28;20033;-58
2022/06/13 01:33:15;;;;;;;3.15;2.85;;;22.40;68.60;;;;;;5031623;28;20033;-58
2022/06/13 01:36:16;;;;;;;3.97;3.58;;;22.40;68.70;;;;;;5039559;28;20041;-58
2022/06/13 01:39:06;;;;;;;3.60;3.30;;;22.40;68.70;;;;;;5026529;28;20117;-58
2022/06/13 01:41:45;;;;;;;3.95;3.45;;;22.40;68.60;;;;;;5020185;28;20025;-58
2022/06/13 01:44:15;;;;;;;3.72;3.40;;;22.30;68.40;;;;;;5027568;28;20427;-58
2022/06/13 01:46:41;;;;;;;4.13;3.50;;;22.30;68.50;;;;;;5022152;28;20045;-58
2022/06/13 01:49:34;;;;;;;3.63;3.30;;;22.30;68.70;;;;;;5028941;28;20033;-58
2022/06/13 01:52:29;;;;;;;4.07;3.67;;;22.30;68.80;;;;;;5027912;28;20111;-58
2022/06/13 01:55:15;;;;;;;4.00;3.40;;;22.30;68.60;;;;;;5028064;28;20079;-58
2022/06/13 01:57:59;;;;;;;4.68;3.70;;;22.30;68.60;;;;;;5033260;28;20477;-57
2022/06/13 02:00:30;;;;;;;4.05;3.65;;;22.30;68.60;;;;;;5030675;28;20428;-58
2022/06/13 02:03:17;;;;;;;4.18;3.78;;;22.30;68.80;;;;;;5023911;28;20365;-58
2022/06/13 02:06:09;;;;;;;4.40;4.00;;;22.30;68.80;;;;;;5029549;28;20429;-58
2022/06/13 02:08:41;;;;;;;4.00;3.40;;;22.30;68.90;;;;;;5027491;28;20113;-58
2022/06/13 02:11:25;;;;;;;3.78;3.40;;;22.30;68.80;;;;;;5030812;28;20022;-58
2022/06/13 02:14:08;;;;;;;3.83;3.45;;;22.30;68.70;;;;;;5027413;28;20377;-58
2022/06/13 02:16:49;;;;;;;3.72;3.33;;;22.30;68.60;;;;;;5030074;28;20065;-58
2022/06/13 02:19:24;;;;;;;3.50;3.20;;;22.30;68.60;;;;;;5027745;28;20071;-58
2022/06/13 02:21:59;;;;;;;3.92;3.53;;;22.30;68.50;;;;;;5024601;28;20737;-58
2022/06/13 02:24:35;;;;;;;4.25;3.70;;;22.30;68.60;;;;;;5024247;28;20024;-58
2022/06/13 02:27:02;;;;;;;3.80;3.40;;;22.30;68.90;;;;;;5033102;28;20025;-58
2022/06/13 02:29:33;;;;;;;3.60;3.30;;;22.30;69.10;;;;;;5024860;28;20033;-57
2022/06/13 02:32:04;;;;;;;;;;;22.30;69.30;;;;;;5031835;28;20542;-58
2022/06/13 02:34:39;;;;;;;3.50;3.20;;;22.30;69.60;;;;;;5031495;28;19913;-57
2022/06/13 02:37:35;;;;;;;4.18;3.53;;;22.30;69.20;;;;;;5027989;28;20052;-58
2022/06/13 02:40:05;;;;;;;3.45;3.15;;;22.30;69.30;;;;;;5024256;28;20037;-58
2022/06/13 02:42:45;;;;;;;3.80;3.40;;;22.30;69.50;;;;;;5031292;28;20036;-58
2022/06/13 02:45:30;;;;;;;3.88;3.50;;;22.30;69.40;;;;;;5025732;28;20665;-58
2022/06/13 02:48:11;;;;;;;4.47;3.50;;;22.40;69.20;;;;;;5034150;28;20053;-58
2022/06/13 02:51:03;;;;;;;3.20;2.90;;;22.40;69.10;;;;;;5032670;28;20029;-58
2022/06/13 02:53:40;;;;;;;4.00;3.22;;;22.40;69.00;;;;;;5022276;28;20042;-57
2022/06/13 02:56:35;;;;;;;3.97;3.55;;;22.50;69.20;;;;;;5030954;28;20049;-59
2022/06/13 02:59:17;;;;;;;4.07;3.67;;;22.50;69.60;;;;;;5033057;28;20049;-58
2022/06/13 03:01:46;;;;;;;4.53;4.05;;;22.50;69.80;;;;;;5016574;28;20034;-58
2022/06/13 03:04:38;;;;;;;3.85;3.40;;;22.60;69.90;;;;;;5040216;28;20029;-58
2022/06/13 03:07:31;;;;;;;4.40;3.60;;;22.60;70.00;;;;;;5025488;28;20432;-58
2022/06/13 03:10:03;;;;;;;4.18;3.40;;;22.70;70.10;;;;;;5032889;28;20079;-58
2022/06/13 03:12:43;;;;;;;4.53;3.90;;;22.70;70.00;;;;;;5033267;28;20061;-58
2022/06/13 03:15:40;;;;;;;4.18;3.78;;;22.70;69.80;;;;;;5033864;28;20026;-58
2022/06/13 03:18:11;;;;;;;4.07;3.67;;;22.80;69.60;;;;;;5018381;28;20064;-58
2022/06/13 03:20:50;;;;;;;4.70;3.78;;;22.80;69.60;;;;;;5023498;28;20033;-58
2022/06/13 03:24:06;;;;;;;4.63;3.85;;;22.90;69.80;;;;;;5017987;28;20030;-58
2022/06/13 03:26:42;;;;;;;4.53;3.97;;;22.90;69.40;;;;;;5017252;28;20125;-58
2022/06/13 03:29:17;;;;;;;4.30;3.90;;;23.00;69.10;;;;;;5027482;28;20025;-58
2022/06/13 03:31:48;;;;;;;3.97;3.60;;;23.10;69.40;;;;;;5018573;28;20100;-58
2022/06/13 03:34:21;;;;;;;3.60;3.30;;;23.40;70.10;;;;;;5029551;28;20503;-58
2022/06/13 03:37:06;;;;;;;4.50;3.75;;;23.70;70.40;;;;;;5029415;28;20429;-58
2022/06/13 03:39:46;;;;;;;3.97;3.28;;;24.30;69.40;;;;;;5031172;28;20056;-58
2022/06/13 03:42:32;;;;;;;3.38;3.08;;;25.00;68.30;;;;;;5021566;28;20033;-59
2022/06/13 03:45:06;;;;;;;4.20;3.58;;;25.60;67.20;;;;;;5032615;28;20512;-58
2022/06/13 03:47:42;;;;;;;3.15;2.85;;;26.60;66.00;;;;;;5032327;28;20459;-58
2022/06/13 03:50:10;;;;;;;2.85;2.65;;;27.50;64.70;;;;;;5025859;28;20026;-59
2022/06/13 03:52:41;;;;;;;3.90;3.22;;;28.50;63.00;;;;;;5019652;28;20038;-59
2022/06/13 03:55:16;;;;;;;2.75;2.53;;;29.30;61.40;;;;;;5016731;28;20506;-58
2022/06/13 03:58:00;;;;;;;3.13;2.85;;;30.20;59.80;;;;;;5031447;28;20076;-58
2022/06/13 04:00:32;;;;;;;2.85;2.65;;;31.00;58.30;;;;;;5029631;28;20049;-58
2022/06/13 04:03:00;;;;;;;3.42;2.63;;;31.80;57.40;;;;;;5028830;28;20433;-58
2022/06/13 04:05:29;;;;;;;2.95;2.60;;;32.40;56.30;;;;;;5027973;28;20766;-58
2022/06/13 04:07:55;;;;;;;3.20;2.90;;;33.00;55.10;;;;;;5032567;28;20025;-58
2022/06/13 04:10:23;;;;;;;2.70;2.50;;;33.60;54.30;;;;;;5023594;28;20460;-59
2022/06/13 04:13:10;;;;;;;3.05;2.80;;;34.10;53.40;;;;;;5025122;28;20080;-58
2022/06/13 04:15:56;;;;;;;2.60;2.40;;;34.60;52.60;;;;;;5032570;28;20571;-59
2022/06/13 04:19:00;;;;;;;3.15;2.67;;;35.00;51.80;;;;;;5025690;28;20022;-58
2022/06/13 04:21:38;;;;;;;3.42;2.83;;;35.50;50.00;;;;;;5026234;28;20026;-58
2022/06/13 04:24:18;;;;;;;2.92;2.63;;;35.90;50.30;;;;;;5031577;28;20036;-58
2022/06/13 04:27:01;;;;;;;2.72;2.53;;;36.30;50.00;;;;;;5029195;28;20029;-58
2022/06/13 04:29:35;;;;;;;2.78;2.58;;;36.70;49.20;;;;;;5020024;28;20030;-58
2022/06/13 04:32:05;;;;;;;2.90;2.70;;;37.10;48.70;;;;;;5021205;28;20017;-58
2022/06/13 04:34:36;;;;;;;3.00;2.80;;;37.30;48.30;;;;;;5019010;28;20057;-58
2022/06/13 04:37:04;;;;;;;3.25;2.85;;;37.50;47.60;;;;;;5027049;28;20034;-59
2022/06/13 04:39:33;;;;;;;2.80;2.60;;;37.80;47.30;;;;;;5021154;28;20087;-59
2022/06/13 04:42:02;;;;;;;2.75;2.35;;;38.00;46.80;;;;;;5023523;28;20033;-59
2022/06/13 04:44:31;;;;;;;2.83;2.63;;;38.20;46.50;;;;;;5026177;28;20163;-58
2022/06/13 04:46:58;;;;;;;2.60;2.40;;;38.30;46.00;;;;;;5027417;28;20116;-59
2022/06/13 04:49:30;;;;;;;2.45;2.25;;;38.40;45.80;;;;;;5024259;28;20442;-58
2022/06/13 04:51:58;;;;;;;3.03;2.80;;;38.50;45.40;;;;;;5025684;28;20037;-58
2022/06/13 04:54:34;;;;;;;3.50;3.15;;;38.60;45.10;;;;;;5022220;28;20026;-58
2022/06/13 04:57:01;;;;;;;2.90;2.70;;;38.70;44.50;;;;;;5030573;28;20029;-58
2022/06/13 04:59:27;;;;;;;2.88;2.67;;;38.70;44.40;;;;;;5023189;28;20090;-58
2022/06/13 05:01:54;;;;;;;2.95;2.70;;;38.70;44.40;;;;;;5015330;28;20037;-58
2022/06/13 05:04:26;;;;;;;2.97;2.78;;;38.70;44.10;;;;;;5024880;28;20029;-59
2022/06/13 05:06:54;;;;;;;2.50;2.30;;;38.80;44.10;;;;;;5022423;28;20045;-59
2022/06/13 05:09:25;;;;;;;2.67;2.47;;;38.80;44.00;;;;;;5021879;28;20290;-59
2022/06/13 05:12:08;;;;;;;2.90;2.70;;;38.90;43.90;;;;;;5024761;28;20083;-58
2022/06/13 05:14:56;;;;;;;2.60;2.40;;;38.90;43.60;;;;;;5023779;28;20032;-58
2022/06/13 05:17:55;;;;;;;2.90;2.70;;;38.90;43.30;;;;;;5020276;28;20430;-58
2022/06/13 05:20:54;;;;;;;2.75;2.40;;;38.90;42.50;;;;;;5025797;28;20026;-58
2022/06/13 05:23:50;;;;;;;2.90;2.60;;;38.70;42.30;;;;;;5020973;28;20029;-58
2022/06/13 05:26:16;;;;;;;3.03;2.72;;;38.10;42.50;;;;;;5023181;28;20100;-58
2022/06/13 05:28:42;;;;;;;4.28;2.85;;;37.20;43.20;;;;;;5021654;28;20109;-58
2022/06/13 05:31:13;;;;;;;3.90;3.03;;;36.40;44.00;;;;;;5018936;28;20503;-59
2022/06/13 05:33:42;;;;;;;3.20;2.90;;;35.60;44.50;;;;;;5022702;28;20088;-58
2022/06/13 05:36:14;;;;;;;2.97;2.75;;;34.60;45.20;;;;;;5018831;28;20033;-58
2022/06/13 05:38:45;;;;;;;3.30;3.00;;;33.90;46.10;;;;;;5023665;28;20429;-58
2022/06/13 05:41:11;;;;;;;3.65;3.05;;;33.10;46.90;;;;;;5025729;28;20536;-58
2022/06/13 05:43:37;;;;;;;3.42;3.13;;;32.50;47.70;;;;;;5026689;28;20025;-58
2022/06/13 05:46:08;;;;;;;3.63;2.95;;;31.90;48.30;;;;;;5032383;28;20124;-58
2022/06/13 05:48:33;;;;;;;3.25;2.85;;;31.40;48.80;;;;;;5025631;28;20108;-59
2022/06/13 05:51:00;;;;;;;3.45;3.15;;;31.10;49.40;;;;;;5020899;28;20152;-58
2022/06/13 05:53:27;;;;;;;3.50;3.20;;;30.70;49.90;;;;;;5013435;28;20041;-58
2022/06/13 05:55:56;;;;;;;3.67;3.33;;;30.40;50.40;;;;;;5008912;28;20036;-59
2022/06/13 05:58:24;;;;;;;3.15;2.85;;;30.10;50.70;;;;;;5017092;28;20026;-58
2022/06/13 06:00:53;;;;;;;3.75;3.00;;;29.90;51.10;;;;;;5018006;28;20029;-59
2022/06/13 06:03:19;;;;;;;3.47;3.17;;;29.70;51.50;;;;;;5018928;28;20551;-59
2022/06/13 06:05:46;;;;;;;3.60;3.30;;;29.60;51.90;;;;;;5012317;28;20064;-58
2022/06/13 06:08:17;;;;;;;3.25;2.95;;;29.50;52.30;;;;;;5022721;28;20441;-58
2022/06/13 06:10:44;;;;;;;3.63;3.30;;;29.30;52.80;;;;;;5021187;28;20028;-59
2022/06/13 06:13:12;;;;;;;3.78;3.45;;;29.20;52.70;;;;;;5022618;28;20060;-58
2022/06/13 06:15:39;;;;;;;3.60;3.30;;;29.10;53.00;;;;;;5025230;28;20034;-59
2022/06/13 06:18:05;;;;;;;4.40;3.53;;;29.00;53.10;;;;;;5015870;28;20024;-58
2022/06/13 06:20:31;;;;;;;3.70;3.30;;;28.90;53.40;;;;;;5016178;28;20029;-58
2022/06/13 06:22:56;;;;;;;4.28;3.47;;;28.80;53.50;;;;;;5020960;28;20068;-58
2022/06/13 06:25:22;;;;;;;3.80;3.50;;;28.70;53.80;;;;;;5022264;28;20087;-58
2022/06/13 06:27:48;;;;;;;4.45;3.63;;;28.70;54.00;;;;;;5025506;28;20112;-59
2022/06/13 06:30:16;;;;;;;4.03;3.50;;;28.60;54.20;;;;;;5017803;28;20029;-58
2022/06/13 06:32:42;;;;;;;3.40;3.10;;;28.50;54.50;;;;;;5024813;28;20037;-59
2022/06/13 06:35:08;;;;;;;4.20;3.80;;;28.50;54.80;;;;;;5015588;28;20060;-58
2022/06/13 06:37:37;;;;;;;3.78;3.40;;;28.50;55.00;;;;;;5017135;28;20124;-58
2022/06/13 06:40:02;;;;;;;4.25;3.75;;;28.40;55.00;;;;;;5016443;28;20105;-58
2022/06/13 06:42:28;;;;;;;3.72;3.30;;;28.30;55.20;;;;;;5018654;28;20120;-58
2022/06/13 06:44:54;;;;;;;3.60;3.30;;;28.30;55.40;;;;;;5017379;28;20122;-58
2022/06/13 06:47:20;;;;;;;3.30;3.00;;;28.30;55.60;;;;;;5016225;28;20058;-59
2022/06/13 06:49:47;;;;;;;3.50;3.20;;;28.20;55.80;;;;;;5018604;28;20042;-56
2022/06/13 06:52:13;;;;;;;3.95;3.55;;;28.20;55.80;;;;;;5016030;28;20026;-57
2022/06/13 07:00:08;;;;;;;3.47;3.17;;;28.10;56.10;;;;;;5013266;28;20651;-58
2022/06/13 07:02:34;;;;;;;3.45;3.15;;;28.10;56.00;;;;;;5014053;28;20029;-58
2022/06/13 07:05:03;;;;;;;3.53;3.22;;;28.10;56.30;;;;;;5007882;28;23653;-58
2022/06/13 07:07:29;;;;;;;3.63;3.33;;;28.10;56.20;;;;;;5014637;28;20085;-58
2022/06/13 07:09:55;;;;;;;3.72;3.22;;;28.00;56.20;;;;;;5009292;28;20030;-57
2022/06/13 07:12:21;;;;;;;3.50;3.20;;;28.00;56.30;;;;;;5011340;28;20029;-57
2022/06/13 07:14:47;;;;;;;3.88;3.47;;;28.00;56.40;;;;;;5008095;28;20034;-58
2022/06/13 07:17:14;;;;;;;3.33;3.03;;;28.00;56.50;;;;;;5010932;28;20108;-58
2022/06/13 07:19:43;;;;;;;3.40;3.10;;;28.00;56.60;;;;;;5010467;28;20060;-58
2022/06/13 07:22:13;;;;;;;3.40;3.10;;;28.00;56.60;;;;;;5011381;28;20091;-58
2022/06/13 07:24:39;;;;;;;3.30;2.90;;;28.00;56.70;;;;;;5008917;28;20038;-58
2022/06/13 07:27:05;;;;;;;3.40;3.10;;;28.00;56.60;;;;;;5011694;28;20328;-57
2022/06/13 07:29:30;;;;;;;3.38;3.08;;;28.00;56.60;;;;;;5016662;28;20029;-58
2022/06/13 07:32:02;;;;;;;3.50;3.20;;;28.00;56.80;;;;;;5005707;28;20053;-58
2022/06/13 07:34:30;;;;;;;4.47;3.45;;;28.00;56.70;;;;;;5013563;28;20674;-57
2022/06/13 07:36:58;;;;;;;3.65;3.28;;;28.10;56.80;;;;;;5009885;28;20041;-57
2022/06/13 07:39:24;;;;;;;3.10;2.88;;;28.10;56.80;;;;;;5008387;28;20034;-58
2022/06/13 07:41:50;;;;;;;4.18;2.63;;;28.10;56.70;;;;;;5016402;28;20026;-58
2022/06/13 07:44:23;;;;;;;3.30;3.00;;;28.10;56.50;;;;;;5010888;28;20094;-57
2022/06/13 07:46:50;;;;;;;3.10;2.90;;;28.10;56.40;;;;;;5009053;28;20038;-58
2022/06/13 07:49:16;;;;;;;3.67;3.05;;;28.10;56.40;;;;;;5009440;28;20056;-57
2022/06/13 07:51:42;;;;;;;3.00;2.78;;;28.10;56.20;;;;;;5009147;28;20734;-58
2022/06/13 07:54:08;;;;;;;3.08;2.80;;;28.10;56.10;;;;;;4998787;28;20116;-58
2022/06/13 07:56:34;;;;;;;3.25;2.95;;;28.10;56.00;;;;;;5006943;28;20044;-58
2022/06/13 07:59:00;;;;;;;3.28;2.97;;;28.10;55.90;;;;;;5004080;28;21630;-57
2022/06/13 08:01:27;;;;;;;3.42;2.92;;;28.10;55.80;;;;;;5009926;28;20101;-57
2022/06/13 08:03:53;;;;;;;2.80;2.60;;;28.20;55.90;;;;;;5005510;28;20489;-59
2022/06/13 08:06:20;;;;;;;2.95;2.75;;;28.20;55.60;;;;;;4997860;28;20025;-57
2022/06/13 08:08:46;;;;;;;3.00;2.80;;;28.20;55.40;;;;;;5009623;28;20041;-57
2022/06/13 08:11:15;;;;;;;4.07;2.72;;;28.30;55.40;;;;;;5007664;28;21736;-58
2022/06/13 08:13:41;;;;;;;2.60;2.40;;;28.30;55.80;;;;;;4998421;28;20087;-57
2022/06/13 08:16:08;;;;;;;2.92;2.65;;;28.30;55.10;;;;;;4996925;28;20677;-57
2022/06/13 08:18:36;;;;;;;2.90;2.70;;;28.30;54.90;;;;;;5003056;28;20122;-58
2022/06/13 08:21:02;;;;;;;2.70;2.50;;;28.30;55.50;;;;;;5001490;28;20029;-58
2022/06/13 08:23:28;;;;;;;3.17;2.60;;;28.30;54.20;;;;;;5001770;28;20704;-58
2022/06/13 08:25:54;;;;;;;2.72;2.55;;;28.40;54.70;;;;;;5002877;28;20037;-57
2022/06/13 08:28:20;;;;;;;2.88;2.67;;;28.40;54.60;;;;;;4996500;28;20124;-58
2022/06/13 08:30:50;;;;;;;4.03;2.90;;;28.40;54.50;;;;;;4996677;28;20052;-58
2022/06/13 08:33:17;;;;;;;;;;;28.40;55.10;;;;;;5005481;28;20065;-58
2022/06/13 08:35:43;;;;;;;3.00;2.80;;;28.40;54.30;;;;;;5006675;28;19921;-58
2022/06/13 08:38:09;;;;;;;3.10;2.80;;;28.40;54.60;;;;;;5002897;28;20034;-58
2022/06/13 08:40:59;;;;;;;3.10;2.80;;;28.40;54.50;;;;;;5006583;28;20025;-57
2022/06/13 08:43:25;;;;;;;;;;;28.40;54.50;;;;;;5011585;28;20080;-58
2022/06/13 08:46:01;;;;;;;2.53;2.33;;;28.30;54.60;;;;;;5011528;28;19921;-58
2022/06/13 08:48:39;;;;;;;2.78;2.58;;;28.40;54.80;;;;;;5007428;28;20026;-58
2022/06/13 08:51:11;;;;;;;3.05;2.80;;;28.40;54.60;;;;;;5005793;28;20500;-58
2022/06/13 08:53:47;;;;;;;3.05;2.60;;;28.40;54.90;;;;;;5008563;28;20457;-58
2022/06/13 08:56:15;;;;;;;2.85;2.58;;;28.40;54.60;;;;;;5001311;28;20540;-57
2022/06/13 08:58:54;;;;;;;2.70;2.50;;;28.50;54.60;;;;;;4995071;28;20528;-57
2022/06/13 09:01:32;;;;;;;2.50;2.30;;;28.50;54.30;;;;;;4997905;28;20042;-56
2022/06/13 09:04:19;;;;;;;3.13;2.55;;;28.50;54.20;;;;;;5001536;28;20041;-56
2022/06/13 09:07:08;;;;;;;2.88;2.60;;;28.50;54.40;;;;;;5001679;28;20119;-58
2022/06/13 09:10:01;;;;;;;2.60;2.40;;;28.40;54.20;;;;;;4999168;28;21434;-57
2022/06/13 09:12:59;;;;;;;2.80;2.60;;;28.40;54.40;;;;;;5004926;28;20041;-56
2022/06/13 09:15:31;;;;;;;2.67;2.47;;;28.40;54.30;;;;;;4997364;28;20068;-58
2022/06/13 09:18:14;;;;;;;3.30;2.60;;;28.40;54.30;;;;;;5007247;28;20029;-57
2022/06/13 09:21:03;;;;;;;2.63;2.42;;;28.40;54.10;;;;;;4997940;28;20099;-58
2022/06/13 09:23:57;;;;;;;2.92;2.72;;;28.40;54.00;;;;;;4986089;28;20041;-56
2022/06/13 09:26:31;;;;;;;2.53;2.33;;;28.30;54.30;;;;;;4993444;28;20120;-57
2022/06/13 09:29:11;;;;;;;2.60;2.40;;;28.20;54.40;;;;;;5001051;28;20563;-59
2022/06/13 09:31:59;;;;;;;2.53;2.33;;;28.20;54.40;;;;;;5002023;28;20049;-59
2022/06/13 09:34:37;;;;;;;2.60;2.40;;;28.20;54.60;;;;;;4996898;28;20033;-58
2022/06/13 09:37:13;;;;;;;2.75;2.55;;;28.20;54.50;;;;;;5001761;28;20436;-58
2022/06/13 09:39:40;;;;;;;2.70;2.50;;;28.20;54.70;;;;;;5008232;28;20079;-58
2022/06/13 09:42:33;;;;;;;2.40;2.20;;;28.10;54.50;;;;;;5004214;28;20548;-58
2022/06/13 09:45:17;;;;;;;2.70;2.50;;;28.10;54.60;;;;;;5008539;28;20036;-57
2022/06/13 09:48:02;;;;;;;2.53;2.33;;;28.10;54.60;;;;;;5005221;28;20131;-57
2022/06/13 09:50:46;;;;;;;2.50;2.30;;;28.10;54.60;;;;;;5007447;28;20037;-57
2022/06/13 09:53:39;;;;;;;2.95;2.53;;;28.00;54.60;;;;;;5005576;28;20037;-57
2022/06/13 09:56:17;;;;;;;2.58;2.38;;;28.00;54.60;;;;;;5009415;28;20430;-58
2022/06/13 09:58:56;;;;;;;2.50;2.30;;;28.00;54.50;;;;;;5010080;28;20030;-57
2022/06/13 10:01:37;;;;;;;2.58;2.38;;;27.90;54.50;;;;;;5005577;28;20052;-59
2022/06/13 10:04:41;;;;;;;2.42;2.25;;;27.90;54.70;;;;;;5004862;28;20493;-59
2022/06/13 10:07:46;;;;;;;2.75;2.47;;;27.80;54.60;;;;;;5023501;28;20075;-58
2022/06/13 10:10:18;;;;;;;2.65;2.45;;;27.80;54.50;;;;;;5011925;28;20052;-58
2022/06/13 10:12:43;;;;;;;2.58;2.38;;;27.80;54.50;;;;;;5016817;28;20033;-58
2022/06/13 10:15:21;;;;;;;2.60;2.40;;;27.70;54.40;;;;;;5016344;28;20493;-58
2022/06/13 10:18:13;;;;;;;2.63;2.42;;;27.70;54.40;;;;;;5008750;28;20033;-58
2022/06/13 10:20:58;;;;;;;2.53;2.30;;;27.70;54.40;;;;;;5003122;28;20114;-58
2022/06/13 10:23:51;;;;;;;2.28;2.17;;;27.70;54.30;;;;;;5003767;28;20947;-58
2022/06/13 10:26:19;;;;;;;2.60;2.40;;;27.60;54.50;;;;;;5000186;28;20054;-58
2022/06/13 10:29:03;;;;;;;2.58;2.38;;;27.70;54.50;;;;;;5006842;28;20037;-58
2022/06/13 10:31:44;;;;;;;2.28;2.17;;;27.70;54.30;;;;;;5010363;28;20060;-57
2022/06/13 10:34:34;;;;;;;2.53;2.33;;;27.70;54.20;;;;;;5000593;28;20057;-58
2022/06/13 10:37:14;;;;;;;2.53;2.33;;;27.70;54.10;;;;;;5002701;28;20337;-58
2022/06/13 10:39:41;;;;;;;2.75;2.47;;;27.70;54.20;;;;;;5008224;28;20032;-58
2022/06/13 10:42:14;;;;;;;2.70;2.50;;;27.70;54.20;;;;;;5009679;28;20042;-58
2022/06/13 10:44:41;;;;;;;2.33;2.08;;;27.70;54.50;;;;;;5011986;28;20052;-58
2022/06/13 10:47:32;;;;;;;2.22;2.13;;;27.70;54.30;;;;;;5013043;28;20046;-58
2022/06/13 10:50:12;;;;;;;2.17;2.00;;;27.70;54.00;;;;;;5002965;28;20047;-58
2022/06/13 10:52:45;;;;;;;2.53;2.40;;;27.70;53.90;;;;;;5004982;28;21397;-58
2022/06/13 10:55:14;;;;;;;2.63;2.42;;;27.70;53.60;;;;;;5007435;28;20038;-58
2022/06/13 10:57:51;;;;;;;2.60;2.40;;;27.70;54.30;;;;;;5002843;28;20986;-58
2022/06/13 11:00:26;;;;;;;2.20;2.00;;;27.70;53.70;;;;;;5004988;28;22336;-58
2022/06/13 11:03:08;;;;;;;2.67;2.40;;;27.70;53.50;;;;;;5005225;28;20137;-58
2022/06/13 11:05:55;;;;;;;2.70;2.50;;;27.70;53.40;;;;;;5006161;28;20037;-57
2022/06/13 11:08:22;;;;;;;2.47;2.20;;;27.70;53.20;;;;;;5010408;28;20048;-58
2022/06/13 11:10:56;;;;;;;2.20;2.10;;;27.70;53.10;;;;;;5011197;28;20037;-57
2022/06/13 11:13:36;;;;;;;2.50;2.30;;;27.70;53.30;;;;;;5005150;28;20033;-57
2022/06/13 11:24:44;;;;;;;2.50;2.30;;;27.60;53.20;;;;;;5001687;28;20036;-58
2022/06/13 11:27:40;;;;;;;3.40;2.42;;;27.70;53.40;;;;;;5012090;28;20026;-58
2022/06/13 11:30:27;;;;;;;2.45;2.25;;;27.70;53.40;;;;;;5006945;28;20033;-58
2022/06/13 11:33:06;;;;;;;2.30;2.10;;;27.60;53.60;;;;;;5004954;28;20570;-57
2022/06/13 11:35:50;;;;;;;1.77;1.67;;;27.60;53.60;;;;;;5008497;28;20033;-58
2022/06/13 11:38:16;;;;;;;2.30;2.10;;;27.60;53.40;;;;;;5001529;28;20034;-57
2022/06/13 11:40:45;;;;;;;2.10;2.00;;;27.60;53.40;;;;;;5007501;28;20088;-58
2022/06/13 11:43:34;;;;;;;2.20;2.00;;;27.50;53.50;;;;;;5004186;28;20115;-58
2022/06/13 11:46:05;;;;;;;2.45;2.25;;;27.50;53.30;;;;;;5009475;28;20045;-59
2022/06/13 11:48:31;;;;;;;2.42;2.22;;;27.50;53.30;;;;;;5008102;28;20140;-58
2022/06/13 11:51:01;;;;;;;3.05;2.75;;;27.50;53.40;;;;;;5009527;28;20034;-59
2022/06/13 11:53:36;;;;;;;2.42;2.20;;;27.50;53.40;;;;;;5008101;28;20500;-59
2022/06/13 11:56:09;;;;;;;2.35;2.20;;;27.50;53.40;;;;;;5011471;28;20041;-58
2022/06/13 11:58:40;;;;;;;2.03;1.92;;;27.50;53.50;;;;;;5002032;28;20032;-58
2022/06/13 12:01:26;;;;;;;2.20;2.10;;;27.40;53.50;;;;;;5003949;28;20025;-57
2022/06/13 12:04:14;;;;;;;2.40;2.20;;;27.40;53.80;;;;;;5000585;28;20029;-58
2022/06/13 12:06:46;;;;;;;2.30;2.10;;;27.40;53.80;;;;;;5010627;28;20096;-59
2022/06/13 12:09:23;;;;;;;1.92;1.83;;;27.40;54.10;;;;;;5003440;28;20037;-58
2022/06/13 12:12:00;;;;;;;2.63;2.42;;;27.30;53.90;;;;;;5003283;28;21596;-58
2022/06/13 12:14:27;;;;;;;2.38;2.17;;;27.30;53.90;;;;;;5004396;28;20063;-57
2022/06/13 12:17:01;;;;;;;2.45;2.25;;;27.30;54.10;;;;;;4998732;28;20096;-58
2022/06/13 12:19:43;;;;;;;2.70;2.30;;;27.20;54.40;;;;;;4998030;28;20029;-59
2022/06/13 12:22:35;;;;;;;2.25;2.05;;;27.30;54.70;;;;;;4992075;28;20069;-58
2022/06/13 12:25:13;;;;;;;2.50;2.30;;;27.20;55.00;;;;;;4999857;28;20040;-56
2022/06/13 12:28:16;;;;;;;3.20;2.50;;;27.20;55.00;;;;;;5004922;28;20026;-56
2022/06/13 12:30:47;;;;;;;2.50;2.30;;;27.20;55.20;;;;;;4999443;28;20566;-58
2022/06/13 12:33:37;;;;;;;2.25;2.15;;;27.20;55.30;;;;;;5001734;28;20386;-59
2022/06/13 12:36:14;;;;;;;2.13;2.03;;;27.20;55.10;;;;;;5002649;28;20042;-58
2022/06/13 12:38:58;;;;;;;2.25;2.10;;;27.10;54.90;;;;;;5007196;28;20116;-59
2022/06/13 12:41:49;;;;;;;2.50;2.30;;;27.10;54.70;;;;;;4997929;28;20135;-59
2022/06/13 12:44:54;;;;;;;2.55;2.35;;;27.10;55.00;;;;;;5005137;28;20121;-59
2022/06/13 12:47:22;;;;;;;2.38;2.17;;;27.20;54.70;;;;;;4999493;28;20124;-59
2022/06/13 12:50:45;;;;;;;2.10;1.90;;;27.20;54.60;;;;;;5004728;28;20405;-59
2022/06/13 12:53:17;;;;;;;2.20;2.00;;;27.20;54.00;;;;;;5006970;28;20729;-58
2022/06/13 12:56:11;;;;;;;2.30;2.10;;;27.20;54.30;;;;;;5000579;28;20030;-58
2022/06/13 12:59:20;;;;;;;2.75;2.42;;;27.20;54.40;;;;;;4989317;28;20709;-57
2022/06/13 13:02:23;;;;;;;2.00;1.90;;;27.10;54.50;;;;;;4988738;28;20460;-57
2022/06/13 13:05:07;;;;;;;2.28;2.10;;;27.20;54.60;;;;;;4998732;28;20022;-58
2022/06/13 13:07:49;;;;;;;2.45;2.25;;;27.10;54.70;;;;;;5007417;28;20101;-58
2022/06/13 13:10:30;;;;;;;2.50;2.30;;;27.10;54.90;;;;;;5001860;28;20072;-59
2022/06/13 13:13:23;;;;;;;2.17;1.98;;;27.10;55.20;;;;;;5000395;28;20038;-58
2022/06/13 13:15:58;;;;;;;2.00;1.90;;;27.10;54.90;;;;;;5002655;28;20033;-58
2022/06/13 13:18:55;;;;;;;2.10;2.00;;;27.10;55.00;;;;;;5009298;28;20029;-58
2022/06/13 13:21:24;;;;;;;2.03;1.92;;;27.10;55.00;;;;;;4999456;28;20030;-58
2022/06/13 13:24:13;;;;;;;2.20;2.10;;;27.10;55.20;;;;;;5003599;28;20025;-58
2022/06/13 13:26:51;;;;;;;2.35;2.15;;;27.10;55.10;;;;;;5004988;28;20109;-57
2022/06/13 13:29:37;;;;;;;2.20;1.95;;;27.10;54.90;;;;;;5006803;28;20060;-59
2022/06/13 13:32:30;;;;;;;2.85;2.15;;;27.10;55.00;;;;;;4992867;28;20036;-58
2022/06/13 13:35:34;;;;;;;2.00;1.90;;;27.00;55.00;;;;;;5002102;28;20059;-58
2022/06/13 13:38:07;;;;;;;2.10;2.00;;;27.00;55.00;;;;;;5005670;28;20040;-57
2022/06/13 13:40:45;;;;;;;2.30;2.13;;;27.00;54.90;;;;;;5014922;28;20030;-59
2022/06/13 13:43:35;;;;;;;2.50;2.30;;;27.00;55.10;;;;;;5006303;28;20026;-59
2022/06/13 13:46:13;;;;;;;2.27;2.17;;;27.10;54.80;;;;;;5014628;28;20050;-59
2022/06/13 13:48:53;;;;;;;2.25;2.08;;;27.00;54.50;;;;;;5009293;28;20409;-58